createdAt,value
2023-05-23T00:00:07.196Z,3746.00
2023-05-23T00:02:33.964Z,3767.80
2023-05-23T00:05:00.808Z,3624.40
2023-05-23T00:07:27.450Z,3760.00
2023-05-23T00:09:54.104Z,3734.00
2023-05-23T00:12:22.492Z,3776.20
2023-05-23T00:14:49.153Z,3793.20
2023-05-23T00:17:15.881Z,3800.40
2023-05-23T00:19:42.616Z,3780.00
2023-05-23T00:22:09.572Z,3785.00
2023-05-23T00:24:36.170Z,3762.80
2023-05-23T00:27:02.953Z,3744.60
2023-05-23T00:29:31.002Z,3785.00
2023-05-23T00:31:57.646Z,3758.50
2023-05-23T00:34:24.376Z,3739.80
2023-05-23T00:36:51.018Z,3741.20
2023-05-23T00:39:17.678Z,3780.00
2023-05-23T00:41:44.369Z,3768.00
2023-05-23T00:44:11.029Z,3765.00
2023-05-23T00:46:39.843Z,3783.40
2023-05-23T00:49:06.636Z,3666.60
2023-05-23T00:51:33.744Z,3508.00
2023-05-23T00:54:01.460Z,3754.40
2023-05-23T00:56:29.099Z,3749.60
2023-05-23T00:58:56.071Z,3730.00
2023-05-23T01:01:22.832Z,3627.20
2023-05-23T01:03:51.030Z,3751.40
2023-05-23T01:06:17.932Z,3771.00
2023-05-23T01:08:44.711Z,3785.00
2023-05-23T01:11:18.082Z,3756.20
2023-05-23T01:13:54.646Z,3769.80
2023-05-23T01:16:36.282Z,3783.00
2023-05-23T01:19:21.457Z,3769.40
2023-05-23T01:21:54.378Z,3403.50
2023-05-23T01:24:35.930Z,3711.50
2023-05-23T01:27:09.459Z,3782.00
2023-05-23T01:29:42.221Z,3768.00
2023-05-23T01:32:11.939Z,3761.60
2023-05-23T01:34:41.179Z,3792.25
2023-05-23T01:37:12.442Z,3761.60
2023-05-23T01:39:39.226Z,3755.00
2023-05-23T01:42:07.058Z,3785.00
2023-05-23T01:44:35.472Z,3454.25
2023-05-23T01:47:05.680Z,3746.00
2023-05-23T01:49:34.050Z,3736.60
2023-05-23T01:52:01.979Z,3612.50
2023-05-23T01:54:29.853Z,3728.00
2023-05-23T01:56:57.484Z,3768.00
2023-05-23T01:59:24.309Z,3656.75
2023-05-23T02:01:51.134Z,3752.00
2023-05-23T02:04:19.516Z,3774.40
2023-05-23T02:06:46.161Z,3738.25
2023-05-23T02:09:12.769Z,3100.50
2023-05-23T02:11:39.496Z,2261.25
2023-05-23T02:14:06.801Z,3636.25
2023-05-23T02:16:33.635Z,3726.40
2023-05-23T02:19:00.315Z,2973.20
2023-05-23T02:21:28.427Z,3728.00
2023-05-23T02:23:56.438Z,2608.40
2023-05-23T02:26:23.102Z,1877.40
2023-05-23T02:28:49.817Z,2965.60
2023-05-23T02:31:16.679Z,2253.40
2023-05-23T02:33:43.385Z,3249.40
2023-05-23T02:36:10.139Z,3621.25
2023-05-23T02:38:38.177Z,2243.40
2023-05-23T02:41:05.016Z,3594.80
2023-05-23T02:43:31.723Z,3750.75
2023-05-23T02:45:58.368Z,3760.00
2023-05-23T02:48:25.119Z,3747.80
2023-05-23T02:50:51.973Z,3665.40
2023-05-23T02:53:18.936Z,3754.50
2023-05-23T02:55:47.105Z,3256.60
2023-05-23T02:58:13.846Z,3721.25
2023-05-23T03:00:40.460Z,3731.60
2023-05-23T03:03:07.571Z,3717.25
2023-05-23T03:05:34.379Z,3717.25
2023-05-23T03:08:01.029Z,3751.00
2023-05-23T03:10:27.735Z,3717.50
2023-05-23T03:12:55.832Z,3742.25
2023-05-23T03:15:22.454Z,3752.80
2023-05-23T03:17:49.131Z,3635.00
2023-05-23T03:20:16.141Z,3579.25
2023-05-23T03:22:42.732Z,3718.60
2023-05-23T03:25:09.809Z,3731.40
2023-05-23T03:27:36.497Z,3760.00
2023-05-23T03:30:05.426Z,3763.25
2023-05-23T03:32:32.086Z,3739.60
2023-05-23T03:34:58.900Z,3730.00
2023-05-23T03:37:25.560Z,3751.60
2023-05-23T03:39:52.184Z,3775.25
2023-05-23T03:42:18.918Z,3724.60
2023-05-23T03:44:45.922Z,3760.00
2023-05-23T03:47:14.007Z,3760.00
2023-05-23T03:49:40.627Z,3735.00
2023-05-23T03:52:07.502Z,3760.00
2023-05-23T03:54:34.159Z,3766.40
2023-05-23T03:57:01.470Z,3768.00
2023-05-23T03:59:28.152Z,3784.25
2023-05-23T04:01:54.857Z,3775.50
2023-05-23T04:04:22.934Z,3740.25
2023-05-23T04:06:49.653Z,3784.25
2023-05-23T04:09:16.411Z,3751.20
2023-05-23T04:11:43.446Z,3732.00
2023-05-23T04:14:10.128Z,3751.00
2023-05-23T04:16:37.650Z,3754.50
2023-05-23T04:19:05.918Z,3773.25
2023-05-23T04:21:34.293Z,3766.40
2023-05-23T04:24:01.261Z,3729.67
2023-05-23T04:26:28.064Z,3746.25
2023-05-23T04:28:54.665Z,3756.20
2023-05-23T04:31:21.430Z,3784.25
2023-05-23T04:33:48.414Z,3752.75
2023-05-23T04:36:15.174Z,3765.50
2023-05-23T04:38:43.385Z,3772.80
2023-05-23T04:41:10.096Z,3759.00
2023-05-23T04:43:36.867Z,3756.50
2023-05-23T04:46:03.593Z,3746.40
2023-05-23T04:48:30.271Z,3775.75
2023-05-23T04:50:56.896Z,3748.50
2023-05-23T04:53:23.653Z,3759.80
2023-05-23T04:55:51.787Z,3766.40
2023-05-23T04:58:18.667Z,3774.33
2023-05-23T05:00:45.511Z,3779.50
2023-05-23T05:03:14.404Z,3778.00
2023-05-23T05:05:41.028Z,3763.25
2023-05-23T05:08:07.718Z,3752.50
2023-05-23T05:10:34.359Z,3779.50
2023-05-23T05:13:02.407Z,3769.00
2023-05-23T05:15:29.392Z,3775.75
2023-05-23T05:17:56.039Z,3775.75
2023-05-23T05:20:22.710Z,3759.25
2023-05-23T05:22:55.697Z,3777.75
2023-05-23T05:25:22.330Z,3751.67
2023-05-23T05:27:48.999Z,3778.00
2023-05-23T05:30:17.154Z,3752.80
2023-05-23T05:32:43.840Z,3726.40
2023-05-23T05:35:10.573Z,3761.60
2023-05-23T05:37:37.252Z,3738.00
2023-05-23T05:40:04.727Z,3738.20
2023-05-23T05:42:31.466Z,3732.25
2023-05-23T05:44:58.147Z,3769.25
2023-05-23T05:47:26.347Z,3743.67
2023-05-23T05:49:53.801Z,3757.33
2023-05-23T05:52:20.463Z,3775.25
2023-05-23T05:54:47.105Z,3782.67
2023-05-23T05:57:13.850Z,3777.75
2023-05-23T05:59:40.479Z,3744.25
2023-05-23T06:02:07.164Z,3760.00
2023-05-23T06:04:35.342Z,3763.00
2023-05-23T06:07:02.041Z,3748.25
2023-05-23T06:09:28.760Z,3754.50
2023-05-23T06:11:55.504Z,3754.50
2023-05-23T06:14:22.158Z,3760.00
2023-05-23T06:16:49.478Z,3760.00
2023-05-23T06:19:16.176Z,3743.00
2023-05-23T06:21:44.224Z,3752.25
2023-05-23T06:24:10.984Z,3721.25
2023-05-23T06:26:37.578Z,3721.25
2023-05-23T06:29:04.293Z,3730.25
2023-05-23T06:31:31.237Z,3706.80
2023-05-23T06:33:57.869Z,3718.00
2023-05-23T06:36:24.539Z,3687.40
2023-05-23T06:38:53.033Z,3718.00
2023-05-23T06:41:19.749Z,3679.00
2023-05-23T06:43:46.380Z,3675.00
2023-05-23T06:46:13.035Z,3708.40
2023-05-23T06:48:39.729Z,3726.80
2023-05-23T06:51:06.556Z,3705.25
2023-05-23T06:53:33.381Z,3667.00
2023-05-23T06:56:01.480Z,3716.40
2023-05-23T06:58:28.188Z,3685.00
2023-05-23T07:00:55.060Z,3693.25
2023-05-23T07:03:21.670Z,3705.00
2023-05-23T07:05:48.333Z,3616.75
2023-05-23T07:08:15.212Z,3710.00
2023-05-23T07:10:42.298Z,3687.40
2023-05-23T07:13:10.551Z,3669.80
2023-05-23T07:15:37.417Z,3687.40
2023-05-23T07:18:04.287Z,3638.60
2023-05-23T07:20:32.997Z,3681.00
2023-05-23T07:22:59.692Z,3623.00
2023-05-23T07:25:26.324Z,3668.20
2023-05-23T07:27:52.955Z,3633.80
2023-05-23T07:30:21.386Z,3641.00
2023-05-23T07:32:48.574Z,3676.20
2023-05-23T07:35:15.722Z,3676.20
2023-05-23T07:37:42.955Z,3661.80
2023-05-23T07:40:10.313Z,3661.80
2023-05-23T07:42:37.050Z,3685.00
2023-05-23T07:45:04.516Z,3676.20
2023-05-23T07:47:32.592Z,3676.20
2023-05-23T07:49:59.404Z,3668.20
2023-05-23T07:52:26.097Z,3668.20
2023-05-23T07:54:52.955Z,3671.40
2023-05-23T07:57:19.571Z,3661.80
2023-05-23T07:59:46.446Z,3676.20
2023-05-23T08:02:13.329Z,3677.80
2023-05-23T08:04:41.685Z,3677.80
2023-05-23T08:07:08.580Z,3635.40
2023-05-23T08:09:35.613Z,3669.80
2023-05-23T08:12:02.296Z,3669.80
2023-05-23T08:14:38.753Z,3627.75
2023-05-23T08:17:16.318Z,3630.60
2023-05-23T08:19:44.675Z,3647.25
2023-05-23T08:22:11.432Z,3627.75
2023-05-23T08:24:38.069Z,3637.00
2023-05-23T08:27:05.811Z,3637.25
2023-05-23T08:29:32.449Z,3618.00
2023-05-23T08:31:59.057Z,3620.00
2023-05-23T08:34:25.778Z,3607.60
2023-05-23T08:36:53.849Z,3606.25
2023-05-23T08:39:20.498Z,3606.00
2023-05-23T08:41:47.298Z,3561.60
2023-05-23T08:44:14.290Z,3579.50
2023-05-23T08:46:45.263Z,3562.75
2023-05-23T08:49:13.488Z,3536.75
2023-05-23T08:51:43.182Z,3517.40
2023-05-23T08:54:11.400Z,3485.40
2023-05-23T08:56:38.438Z,3470.60
2023-05-23T08:59:05.658Z,3486.80
2023-05-23T09:01:32.984Z,3496.25
2023-05-23T09:03:59.899Z,3538.00
2023-05-23T09:06:26.595Z,3540.25
2023-05-23T09:08:53.318Z,3530.00
2023-05-23T09:11:21.860Z,3505.40
2023-05-23T09:13:48.643Z,3498.20
2023-05-23T09:16:17.043Z,3545.00
2023-05-23T09:18:45.064Z,3532.75
2023-05-23T09:21:13.137Z,3560.00
2023-05-23T09:23:41.740Z,3540.25
2023-05-23T09:26:10.192Z,3561.60
2023-05-23T09:28:40.322Z,3535.00
2023-05-23T09:31:08.509Z,3559.00
2023-05-23T09:33:40.745Z,3535.00
2023-05-23T09:36:07.702Z,3560.00
2023-05-23T09:38:38.604Z,3530.75
2023-05-23T09:41:05.417Z,3542.00
2023-05-23T09:43:32.204Z,3538.75
2023-05-23T09:46:07.675Z,3544.00
2023-05-23T09:48:34.311Z,3529.25
2023-05-23T09:51:04.781Z,3523.75
2023-05-23T09:53:31.814Z,3505.25
2023-05-23T09:56:00.175Z,3517.40
2023-05-23T09:58:28.184Z,3516.25
2023-05-23T10:00:56.436Z,3489.00
2023-05-23T10:03:30.806Z,3500.00
2023-05-23T10:06:01.669Z,3491.00
2023-05-23T10:08:34.170Z,3495.40
2023-05-23T10:11:58.229Z,3523.00
2023-05-23T10:14:29.334Z,3499.40
2023-05-23T10:17:02.384Z,3489.80
2023-05-23T10:19:36.465Z,3481.20
2023-05-23T10:22:06.744Z,3443.80
2023-05-23T10:24:34.436Z,3424.20
2023-05-23T10:27:01.495Z,3436.80
2023-05-23T10:29:29.824Z,3449.75
2023-05-23T10:31:57.648Z,3457.80
2023-05-23T10:34:34.910Z,3486.80
2023-05-23T10:37:03.737Z,3480.25
2023-05-23T10:39:46.812Z,3459.40
2023-05-23T10:42:19.763Z,3467.50
2023-05-23T10:44:46.409Z,3465.00
2023-05-23T10:47:13.354Z,3438.20
2023-05-23T10:49:43.244Z,3465.75
2023-05-23T10:52:11.342Z,3451.50
2023-05-23T10:54:43.096Z,3478.00
2023-05-23T10:57:11.204Z,3498.25
2023-05-23T10:59:39.068Z,3490.75
2023-05-23T11:02:12.380Z,3523.75
2023-05-23T11:04:39.299Z,3539.40
2023-05-23T11:07:30.961Z,3526.00
2023-05-23T11:10:04.720Z,3517.40
2023-05-23T11:12:38.674Z,3485.50
2023-05-23T11:15:19.614Z,3471.00
2023-05-23T11:17:52.126Z,3436.80
2023-05-23T11:20:19.561Z,3457.00
2023-05-23T11:22:56.038Z,3379.40
2023-05-23T11:25:40.282Z,3472.00
2023-05-23T11:28:06.975Z,3463.40
2023-05-23T11:30:35.272Z,3509.40
2023-05-23T11:33:07.445Z,3494.50
2023-05-23T11:35:34.216Z,3502.40
2023-05-23T11:38:02.962Z,3465.00
2023-05-23T11:40:31.409Z,3449.40
2023-05-23T11:42:59.215Z,3459.40
2023-05-23T11:45:27.232Z,3479.80
2023-05-23T11:47:54.128Z,3483.75
2023-05-23T11:50:20.918Z,3501.00
2023-05-23T11:52:47.669Z,3486.40
2023-05-23T11:55:15.789Z,3231.00
2023-05-23T11:57:42.496Z,3476.20
2023-05-23T12:00:10.671Z,3471.00
2023-05-23T12:02:39.143Z,3435.40
2023-05-23T12:05:10.107Z,3444.50
2023-05-23T12:07:40.078Z,3452.20
2023-05-23T12:10:07.981Z,3451.00
2023-05-23T12:12:37.116Z,3446.25
2023-05-23T12:15:05.634Z,3446.60
2023-05-23T12:17:32.640Z,3434.00
2023-05-23T12:19:59.901Z,3442.40
2023-05-23T12:22:28.582Z,3451.50
2023-05-23T12:24:55.745Z,3457.80
2023-05-23T12:27:27.938Z,3452.20
2023-05-23T12:30:05.057Z,3448.00
2023-05-23T12:32:32.100Z,3418.60
2023-05-23T12:34:59.224Z,3450.80
2023-05-23T12:37:25.918Z,2935.50
2023-05-23T12:39:52.680Z,3432.60
2023-05-23T12:42:19.420Z,3435.40
2023-05-23T12:44:46.169Z,3436.80
2023-05-23T12:47:14.683Z,3448.00
2023-05-23T12:49:41.352Z,3133.00
2023-05-23T12:52:08.043Z,3414.75
2023-05-23T12:54:34.709Z,3304.00
2023-05-23T12:57:01.389Z,3414.40
2023-05-23T12:59:28.064Z,3420.20
2023-05-23T13:01:55.116Z,3256.25
2023-05-23T13:04:23.258Z,3411.80
2023-05-23T13:06:49.990Z,3404.50
2023-05-23T13:09:16.698Z,3391.00
2023-05-23T13:11:43.339Z,3408.80
2023-05-23T13:14:09.969Z,3420.00
2023-05-23T13:16:36.806Z,3410.20
2023-05-23T13:19:03.627Z,3401.20
2023-05-23T13:21:31.750Z,3427.00
2023-05-23T13:23:58.409Z,3411.60
2023-05-23T13:26:26.070Z,3442.40
2023-05-23T13:28:52.896Z,3449.40
2023-05-23T13:31:19.632Z,3457.80
2023-05-23T13:33:46.281Z,2907.20
2023-05-23T13:36:12.952Z,3434.00
2023-05-23T13:38:41.088Z,3086.60
2023-05-23T13:41:07.763Z,3432.60
2023-05-23T13:43:34.560Z,3417.20
2023-05-23T13:46:01.258Z,3442.40
2023-05-23T13:48:28.125Z,3428.40
2023-05-23T13:50:55.493Z,3005.50
2023-05-23T13:53:22.118Z,2875.20
2023-05-23T13:55:50.208Z,3421.75
2023-05-23T13:58:17.027Z,3207.00
2023-05-23T14:00:43.911Z,3083.80
2023-05-23T14:03:11.494Z,3427.00
2023-05-23T14:05:40.594Z,3429.80
2023-05-23T14:08:07.287Z,3417.20
2023-05-23T14:10:33.946Z,3059.75
2023-05-23T14:13:01.994Z,3432.25
2023-05-23T14:15:28.782Z,2321.00
2023-05-23T14:17:55.736Z,3439.25
2023-05-23T14:20:22.920Z,3082.60
2023-05-23T14:22:49.568Z,3427.00
2023-05-23T14:25:16.653Z,3446.60
2023-05-23T14:27:43.775Z,3423.50
2023-05-23T14:30:12.875Z,3177.75
2023-05-23T14:32:39.717Z,3443.80
2023-05-23T14:35:08.181Z,1956.00
2023-05-23T14:37:35.127Z,1919.40
2023-05-23T14:40:01.831Z,2735.80
2023-05-23T14:42:28.608Z,2529.20
2023-05-23T14:44:55.272Z,1367.40
2023-05-23T14:47:23.450Z,2411.20
2023-05-23T14:49:50.177Z,1995.40
2023-05-23T14:52:17.123Z,1791.40
2023-05-23T14:54:43.999Z,2077.20
2023-05-23T14:57:12.927Z,2697.80
2023-05-23T14:59:39.628Z,2406.40
2023-05-23T15:02:06.551Z,1724.00
2023-05-23T15:04:35.602Z,2069.60
2023-05-23T15:07:02.506Z,1133.20
2023-05-23T15:09:29.165Z,2013.80
2023-05-23T15:11:55.949Z,375.20
2023-05-23T15:14:22.625Z,909.00
2023-05-23T15:16:49.295Z,24.25
2023-05-23T15:19:16.339Z,16.25
2023-05-23T15:21:50.387Z,13.40
2023-05-23T15:24:17.998Z,28.75
2023-05-23T15:26:44.646Z,10.00
2023-05-23T15:29:11.302Z,3.00
2023-05-23T15:31:38.009Z,1.00
2023-05-23T15:34:05.031Z,6.75
2023-05-23T15:36:31.670Z,8.25
2023-05-23T15:39:00.190Z,29.25
2023-05-23T15:41:26.990Z,23.50
2023-05-23T15:43:53.936Z,39.25
2023-05-23T15:46:20.696Z,27.25
2023-05-23T15:48:47.406Z,14.00
2023-05-23T15:51:14.038Z,8.50
2023-05-23T15:53:58.803Z,18.75
2023-05-23T15:56:28.892Z,373.20
2023-05-23T15:58:55.593Z,5.50
2023-05-23T16:01:22.454Z,3.00
2023-05-23T16:03:50.123Z,37.40
2023-05-23T16:06:18.253Z,11.75
2023-05-23T16:08:44.928Z,9.50
2023-05-23T16:11:11.690Z,37.00
2023-05-23T16:13:39.804Z,22.60
2023-05-23T16:16:06.486Z,3.25
2023-05-23T16:18:33.795Z,11.50
2023-05-23T16:21:00.484Z,29.00
2023-05-23T16:23:27.127Z,508.60
2023-05-23T16:25:54.025Z,721.25
2023-05-23T16:28:20.954Z,34.40
2023-05-23T16:30:50.672Z,6.00
2023-05-23T16:33:17.504Z,20.25
2023-05-23T16:35:44.251Z,41.40
2023-05-23T16:38:10.910Z,200.75
2023-05-23T16:40:37.588Z,728.60
2023-05-23T16:43:04.278Z,27.50
2023-05-23T16:45:31.047Z,19.75
2023-05-23T16:47:59.584Z,52.25
2023-05-23T16:50:26.231Z,1060.00
2023-05-23T16:52:53.037Z,3.75
2023-05-23T16:55:19.796Z,4.00
2023-05-23T16:57:46.659Z,32.80
2023-05-23T17:00:14.359Z,8.25
2023-05-23T17:02:41.418Z,50.80
2023-05-23T17:05:09.724Z,30.60
2023-05-23T17:07:36.332Z,36.80
2023-05-23T17:10:03.162Z,378.00
2023-05-23T17:12:29.823Z,15.33
2023-05-23T17:14:56.453Z,26.00
2023-05-23T17:17:23.280Z,11.00
2023-05-23T17:19:49.971Z,19.20
2023-05-23T17:22:18.044Z,29.25
2023-05-23T17:24:44.994Z,643.50
2023-05-23T17:27:11.650Z,13.75
2023-05-23T17:29:38.265Z,25.67
2023-05-23T17:32:05.675Z,25.00
2023-05-23T17:34:32.316Z,205.00
2023-05-23T17:36:58.933Z,171.60
2023-05-23T17:39:27.383Z,388.00
2023-05-23T17:41:54.029Z,789.80
2023-05-23T17:44:20.867Z,1010.60
2023-05-23T17:46:47.625Z,1280.80
2023-05-23T17:49:14.358Z,1430.80
2023-05-23T17:51:41.005Z,1336.75
2023-05-23T17:54:07.787Z,312.20
2023-05-23T17:56:35.813Z,1783.00
2023-05-23T17:59:03.789Z,3148.40
2023-05-23T18:01:30.624Z,2718.20
2023-05-23T18:03:57.330Z,2499.00
2023-05-23T18:06:23.968Z,3027.50
2023-05-23T18:08:50.734Z,1429.00
2023-05-23T18:11:17.424Z,2917.20
2023-05-23T18:13:45.453Z,3592.75
2023-05-23T18:16:13.655Z,2468.50
2023-05-23T18:18:40.356Z,3213.50
2023-05-23T18:21:08.237Z,2214.25
2023-05-23T18:23:35.086Z,3021.25
2023-05-23T18:26:02.001Z,3563.00
2023-05-23T18:28:28.728Z,1577.20
2023-05-23T18:30:56.959Z,2349.80
2023-05-23T18:33:23.650Z,755.50
2023-05-23T18:35:50.927Z,657.20
2023-05-23T18:38:17.685Z,1781.50
2023-05-23T18:40:44.853Z,2406.00
2023-05-23T18:43:12.200Z,2647.20
2023-05-23T18:45:38.968Z,2917.00
2023-05-23T18:48:07.064Z,3591.00
2023-05-23T18:50:33.744Z,3088.80
2023-05-23T18:53:00.578Z,3234.20
2023-05-23T18:55:27.199Z,2310.80
2023-05-23T18:57:54.449Z,3540.80
2023-05-23T19:00:21.468Z,3445.20
2023-05-23T19:02:48.216Z,2844.75
2023-05-23T19:05:16.453Z,3140.75
2023-05-23T19:07:43.060Z,2805.20
2023-05-23T19:10:11.182Z,3151.25
2023-05-23T19:12:38.007Z,1746.25
2023-05-23T19:15:06.009Z,2896.00
2023-05-23T19:17:32.732Z,684.00
2023-05-23T19:19:59.758Z,923.75
2023-05-23T19:22:31.456Z,1117.60
2023-05-23T19:25:03.034Z,2113.40
2023-05-23T19:27:29.650Z,1572.00
2023-05-23T19:29:56.364Z,2887.00
2023-05-23T19:32:23.035Z,3542.25
2023-05-23T19:34:49.726Z,3086.40
2023-05-23T19:37:16.402Z,3595.40
2023-05-23T19:39:44.502Z,2719.60
2023-05-23T19:42:11.405Z,3641.75
2023-05-23T19:44:38.012Z,3298.00
2023-05-23T19:47:05.147Z,3569.50
2023-05-23T19:49:31.834Z,2959.20
2023-05-23T19:51:58.477Z,3272.00
2023-05-23T19:54:25.167Z,3397.25
2023-05-23T19:56:53.363Z,3418.50
2023-05-23T19:59:20.199Z,3249.60
2023-05-23T20:01:46.950Z,3683.25
2023-05-23T20:04:14.058Z,3657.50
2023-05-23T20:06:40.721Z,3657.00
2023-05-23T20:09:07.351Z,3666.60
2023-05-23T20:11:34.909Z,3175.60
2023-05-23T20:14:02.958Z,3668.20
2023-05-23T20:16:29.832Z,3687.25
2023-05-23T20:18:56.722Z,3707.25
2023-05-23T20:21:23.336Z,3716.40
2023-05-23T20:23:49.974Z,3719.25
2023-05-23T20:26:16.693Z,3687.80
2023-05-23T20:28:43.318Z,3716.80
2023-05-23T20:31:11.683Z,3740.00
2023-05-23T20:33:38.596Z,3697.20
2023-05-23T20:36:05.968Z,3713.00
2023-05-23T20:38:32.613Z,3754.50
2023-05-23T20:40:59.476Z,3700.40
2023-05-23T20:43:26.132Z,3710.00
2023-05-23T20:45:52.810Z,3433.40
2023-05-23T20:48:20.897Z,3715.25
2023-05-23T20:50:47.501Z,3369.00
2023-05-23T20:53:14.172Z,3742.25
2023-05-23T20:55:41.327Z,3758.20
2023-05-23T20:58:08.106Z,3795.00
2023-05-23T21:00:34.725Z,3732.00
2023-05-23T21:03:01.686Z,3775.25
2023-05-23T21:05:29.898Z,3751.00
2023-05-23T21:07:56.551Z,3728.60
2023-05-23T21:10:23.297Z,3385.75
2023-05-23T21:12:50.018Z,3742.80
2023-05-23T21:15:17.394Z,3718.20
2023-05-23T21:17:44.373Z,3768.00
2023-05-23T21:20:11.807Z,3734.00
2023-05-23T21:22:40.396Z,3751.00
2023-05-23T21:25:07.605Z,3768.00
2023-05-23T21:27:34.322Z,3760.00
2023-05-23T21:30:00.957Z,3738.25
2023-05-23T21:32:27.691Z,3726.40
2023-05-23T21:34:54.469Z,3760.00
2023-05-23T21:37:21.123Z,3751.00
2023-05-23T21:39:52.279Z,3721.40
2023-05-23T21:42:19.446Z,3751.00
2023-05-23T21:44:46.053Z,3767.25
2023-05-23T21:47:12.716Z,3777.80
2023-05-23T21:49:39.451Z,3759.00
2023-05-23T21:52:06.095Z,3730.20
2023-05-23T21:54:32.758Z,3730.20
2023-05-23T21:57:01.091Z,3728.60
2023-05-23T21:59:27.744Z,3760.00
2023-05-23T22:01:54.493Z,3754.50
2023-05-23T22:04:21.380Z,3725.20
2023-05-23T22:06:48.062Z,3740.25
2023-05-23T22:09:14.807Z,3656.00
2023-05-23T22:11:41.840Z,3652.00
2023-05-23T22:14:10.183Z,2658.20
2023-05-23T22:16:38.240Z,3775.00
2023-05-23T22:19:05.240Z,3776.40
2023-05-23T22:21:32.434Z,3743.20
2023-05-23T22:23:59.163Z,3763.40
2023-05-23T22:26:25.907Z,3779.60
2023-05-23T22:28:52.517Z,3730.20
2023-05-23T22:31:22.240Z,3785.00
2023-05-23T22:33:49.386Z,3677.80
2023-05-23T22:36:16.061Z,3793.20
2023-05-23T22:38:42.762Z,3712.20
2023-05-23T22:41:09.647Z,3793.20
2023-05-23T22:43:36.557Z,3793.20
2023-05-23T22:46:03.244Z,3793.20
2023-05-23T22:48:31.400Z,1182.20
2023-05-23T22:50:57.992Z,2648.00
2023-05-23T22:53:24.605Z,1567.60
2023-05-23T22:55:53.155Z,3800.00
2023-05-23T22:58:19.835Z,3276.80
2023-05-23T23:00:46.502Z,2976.80
2023-05-23T23:03:13.462Z,3319.75
2023-05-23T23:05:41.659Z,3723.00
2023-05-23T23:08:08.253Z,2325.60
2023-05-23T23:10:34.984Z,3780.00
2023-05-23T23:13:01.639Z,3809.75
2023-05-23T23:15:28.267Z,3773.20
2023-05-23T23:17:55.287Z,3405.75
2023-05-23T23:20:21.993Z,3807.60
2023-05-23T23:22:50.136Z,1564.20
2023-05-23T23:25:17.052Z,2295.20
2023-05-23T23:27:43.639Z,3466.20
2023-05-23T23:30:10.712Z,2684.40
2023-05-23T23:32:37.443Z,2672.00
2023-05-23T23:35:04.980Z,3828.20
2023-05-23T23:37:31.579Z,3058.80
2023-05-23T23:39:59.830Z,3818.50
2023-05-23T23:42:26.451Z,2674.50
2023-05-23T23:44:53.090Z,1924.40
2023-05-23T23:47:19.807Z,750.00
2023-05-23T23:49:46.667Z,545.40
2023-05-23T23:52:13.400Z,3058.75
2023-05-23T23:54:40.094Z,3614.60
2023-05-23T23:57:08.161Z,3701.40
2023-05-23T23:59:34.781Z,3833.50
